sensor_id;sensor_type;location;lat;lon;timestamp;pressure;altitude;pressure_sealevel;temperature;humidity
19831;BME280;10076;52.008;4.708;2023-07-31T00:01:14;101027.47;;;18.93;100.00
19831;BME280;10076;52.008;4.708;2023-07-31T00:03:39;101015.09;;;18.92;100.00
19831;BME280;10076;52.008;4.708;2023-07-31T00:06:04;101020.06;;;18.87;100.00
19831;BME280;10076;52.008;4.708;2023-07-31T00:08:30;101008.16;;;18.82;100.00
19831;BME280;10076;52.008;4.708;2023-07-31T00:10:55;101016.00;;;18.83;100.00
19831;BME280;10076;52.008;4.708;2023-07-31T00:13:20;101008.38;;;18.88;100.00
19831;BME280;10076;52.008;4.708;2023-07-31T00:15:46;101013.59;;;18.98;100.00
19831;BME280;10076;52.008;4.708;2023-07-31T00:18:11;101006.69;;;18.87;100.00
19831;BME280;10076;52.008;4.708;2023-07-31T00:20:36;101006.69;;;18.87;100.00
19831;BME280;10076;52.008;4.708;2023-07-31T00:23:02;101009.41;;;18.70;100.00
19831;BME280;10076;52.008;4.708;2023-07-31T00:25:27;101005.19;;;18.68;100.00
19831;BME280;10076;52.008;4.708;2023-07-31T00:27:53;101010.78;;;18.74;100.00
19831;BME280;10076;52.008;4.708;2023-07-31T00:30:18;101003.22;;;18.70;100.00
19831;BME280;10076;52.008;4.708;2023-07-31T00:32:43;100998.41;;;18.73;100.00
19831;BME280;10076;52.008;4.708;2023-07-31T00:35:08;100995.56;;;18.74;100.00
19831;BME280;10076;52.008;4.708;2023-07-31T00:37:34;101001.44;;;18.78;100.00
19831;BME280;10076;52.008;4.708;2023-07-31T00:39:59;101010.78;;;18.74;100.00
19831;BME280;10076;52.008;4.708;2023-07-31T00:42:25;101007.22;;;18.66;100.00
19831;BME280;10076;52.008;4.708;2023-07-31T00:44:50;101011.00;;;18.80;100.00
19831;BME280;10076;52.008;4.708;2023-07-31T00:47:16;101009.41;;;18.70;100.00
19831;BME280;10076;52.008;4.708;2023-07-31T00:49:41;101015.22;;;18.66;100.00
19831;BME280;10076;52.008;4.708;2023-07-31T00:52:07;101020.94;;;18.71;100.00
19831;BME280;10076;52.008;4.708;2023-07-31T00:54:33;101005.44;;;18.74;100.00
19831;BME280;10076;52.008;4.708;2023-07-31T00:56:59;101003.38;;;18.68;100.00
19831;BME280;10076;52.008;4.708;2023-07-31T00:59:25;100993.13;;;18.64;100.00
19831;BME280;10076;52.008;4.708;2023-07-31T01:01:50;101000.22;;;18.72;100.00
19831;BME280;10076;52.008;4.708;2023-07-31T01:04:17;101002.28;;;18.78;100.00
19831;BME280;10076;52.008;4.708;2023-07-31T01:06:56;101000.38;;;18.71;100.00
19831;BME280;10076;52.008;4.708;2023-07-31T01:12:09;101007.97;;;18.83;100.00
19831;BME280;10076;52.008;4.708;2023-07-31T01:14:38;101005.44;;;18.74;100.00
19831;BME280;10076;52.008;4.708;2023-07-31T01:17:03;101006.44;;;18.56;100.00
19831;BME280;10076;52.008;4.708;2023-07-31T01:19:28;101006.69;;;18.62;100.00
19831;BME280;10076;52.008;4.708;2023-07-31T01:22:28;100996.09;;;18.61;100.00
19831;BME280;10076;52.008;4.708;2023-07-31T01:28:14;100996.84;;;18.45;100.00
19831;BME280;10076;52.008;4.708;2023-07-31T01:30:46;100996.69;;;18.47;100.00
19831;BME280;10076;52.008;4.708;2023-07-31T01:33:13;100984.91;;;18.40;100.00
19831;BME280;10076;52.008;4.708;2023-07-31T01:35:39;100993.38;;;18.35;100.00
19831;BME280;10076;52.008;4.708;2023-07-31T01:38:05;100983.75;;;18.42;100.00
19831;BME280;10076;52.008;4.708;2023-07-31T01:40:31;100979.72;;;18.38;100.00
19831;BME280;10076;52.008;4.708;2023-07-31T01:42:56;100984.28;;;18.46;100.00
19831;BME280;10076;52.008;4.708;2023-07-31T01:45:22;100981.28;;;18.49;100.00
19831;BME280;10076;52.008;4.708;2023-07-31T01:47:47;100983.50;;;18.53;100.00
19831;BME280;10076;52.008;4.708;2023-07-31T01:50:12;100976.28;;;18.46;100.00
19831;BME280;10076;52.008;4.708;2023-07-31T01:52:38;100970.06;;;18.63;100.00
19831;BME280;10076;52.008;4.708;2023-07-31T01:55:03;100959.50;;;18.61;100.00
19831;BME280;10076;52.008;4.708;2023-07-31T01:57:29;100960.56;;;18.68;100.00
19831;BME280;10076;52.008;4.708;2023-07-31T01:59:54;100955.69;;;18.64;100.00
19831;BME280;10076;52.008;4.708;2023-07-31T02:02:19;100948.91;;;18.77;100.00
19831;BME280;10076;52.008;4.708;2023-07-31T02:04:45;100951.31;;;18.63;100.00
19831;BME280;10076;52.008;4.708;2023-07-31T02:07:11;100941.72;;;18.77;100.00
19831;BME280;10076;52.008;4.708;2023-07-31T02:09:36;100939.44;;;18.82;100.00
19831;BME280;10076;52.008;4.708;2023-07-31T02:12:02;100931.72;;;18.79;100.00
19831;BME280;10076;52.008;4.708;2023-07-31T02:14:27;100928.72;;;18.82;100.00
19831;BME280;10076;52.008;4.708;2023-07-31T02:16:52;100922.63;;;18.72;100.00
19831;BME280;10076;52.008;4.708;2023-07-31T02:19:18;100921.28;;;18.69;100.00
19831;BME280;10076;52.008;4.708;2023-07-31T02:21:43;100899.25;;;18.74;100.00
19831;BME280;10076;52.008;4.708;2023-07-31T02:24:08;100916.72;;;18.86;100.00
19831;BME280;10076;52.008;4.708;2023-07-31T02:26:34;100920.00;;;18.80;100.00
19831;BME280;10076;52.008;4.708;2023-07-31T02:28:59;100919.03;;;18.81;100.00
19831;BME280;10076;52.008;4.708;2023-07-31T02:31:24;100915.19;;;18.84;100.00
19831;BME280;10076;52.008;4.708;2023-07-31T02:33:50;100921.72;;;18.89;100.00
19831;BME280;10076;52.008;4.708;2023-07-31T02:36:15;100917.69;;;18.85;100.00
19831;BME280;10076;52.008;4.708;2023-07-31T02:38:40;100913.41;;;18.92;100.00
19831;BME280;10076;52.008;4.708;2023-07-31T02:41:06;100913.41;;;18.92;100.00
19831;BME280;10076;52.008;4.708;2023-07-31T02:43:31;100906.81;;;18.79;100.00
19831;BME280;10076;52.008;4.708;2023-07-31T02:45:56;100905.94;;;18.78;100.00
19831;BME280;10076;52.008;4.708;2023-07-31T02:48:22;100909.16;;;18.82;100.00
19831;BME280;10076;52.008;4.708;2023-07-31T02:50:47;100894.66;;;18.92;100.00
19831;BME280;10076;52.008;4.708;2023-07-31T02:53:13;100903.31;;;18.86;100.00
19831;BME280;10076;52.008;4.708;2023-07-31T02:55:38;100894.97;;;18.89;100.00
19831;BME280;10076;52.008;4.708;2023-07-31T02:58:04;100891.56;;;18.79;100.00
19831;BME280;10076;52.008;4.708;2023-07-31T03:00:29;100887.63;;;18.91;100.00
19831;BME280;10076;52.008;4.708;2023-07-31T03:02:55;100876.88;;;18.83;100.00
19831;BME280;10076;52.008;4.708;2023-07-31T03:05:20;100883.59;;;18.87;100.00
19831;BME280;10076;52.008;4.708;2023-07-31T03:07:46;100863.88;;;18.88;100.00
19831;BME280;10076;52.008;4.708;2023-07-31T03:10:11;100877.91;;;18.82;100.00
19831;BME280;10076;52.008;4.708;2023-07-31T03:12:36;100868.19;;;18.81;100.00
19831;BME280;10076;52.008;4.708;2023-07-31T03:15:02;100876.91;;;18.91;100.00
19831;BME280;10076;52.008;4.708;2023-07-31T03:17:27;100862.50;;;18.84;100.00
19831;BME280;10076;52.008;4.708;2023-07-31T03:19:53;100879.66;;;18.99;100.00
19831;BME280;10076;52.008;4.708;2023-07-31T03:22:18;100870.47;;;19.02;100.00
19831;BME280;10076;52.008;4.708;2023-07-31T03:24:43;100869.38;;;19.20;100.00
19831;BME280;10076;52.008;4.708;2023-07-31T03:27:09;100868.22;;;19.15;100.00
19831;BME280;10076;52.008;4.708;2023-07-31T03:29:34;100860.88;;;19.25;100.00
19831;BME280;10076;52.008;4.708;2023-07-31T03:31:59;100866.28;;;18.99;100.00
19831;BME280;10076;52.008;4.708;2023-07-31T03:34:25;100849.94;;;19.10;100.00
19831;BME280;10076;52.008;4.708;2023-07-31T03:36:50;100860.84;;;19.17;100.00
19831;BME280;10076;52.008;4.708;2023-07-31T03:39:15;100858.50;;;19.14;100.00
19831;BME280;10076;52.008;4.708;2023-07-31T03:41:40;100860.19;;;19.15;100.00
19831;BME280;10076;52.008;4.708;2023-07-31T03:44:06;100856.81;;;19.13;100.00
19831;BME280;10076;52.008;4.708;2023-07-31T03:46:31;100858.97;;;19.09;100.00
19831;BME280;10076;52.008;4.708;2023-07-31T03:48:57;100855.47;;;19.09;100.00
19831;BME280;10076;52.008;4.708;2023-07-31T03:51:22;100856.28;;;19.09;100.00
19831;BME280;10076;52.008;4.708;2023-07-31T03:53:47;100849.69;;;19.04;100.00
19831;BME280;10076;52.008;4.708;2023-07-31T03:56:13;100854.22;;;19.03;100.00
19831;BME280;10076;52.008;4.708;2023-07-31T03:58:38;100853.13;;;18.80;100.00
19831;BME280;10076;52.008;4.708;2023-07-31T04:01:04;100845.03;;;18.65;100.00
19831;BME280;10076;52.008;4.708;2023-07-31T04:03:29;100838.97;;;18.63;100.00
19831;BME280;10076;52.008;4.708;2023-07-31T04:05:55;100837.09;;;18.55;100.00
19831;BME280;10076;52.008;4.708;2023-07-31T04:08:23;100836.16;;;18.39;100.00
19831;BME280;10076;52.008;4.708;2023-07-31T04:10:49;100842.81;;;18.35;100.00
19831;BME280;10076;52.008;4.708;2023-07-31T04:13:15;100831.06;;;18.28;100.00
19831;BME280;10076;52.008;4.708;2023-07-31T04:15:40;100837.41;;;18.27;100.00
19831;BME280;10076;52.008;4.708;2023-07-31T04:18:06;100834.75;;;18.27;100.00
19831;BME280;10076;52.008;4.708;2023-07-31T04:20:31;100829.72;;;18.24;100.00
19831;BME280;10076;52.008;4.708;2023-07-31T04:22:57;100835.38;;;18.21;100.00
19831;BME280;10076;52.008;4.708;2023-07-31T04:25:22;100827.38;;;18.03;100.00
19831;BME280;10076;52.008;4.708;2023-07-31T04:27:47;100831.69;;;18.22;100.00
19831;BME280;10076;52.008;4.708;2023-07-31T04:30:13;100828.09;;;18.31;100.00
19831;BME280;10076;52.008;4.708;2023-07-31T04:32:38;100826.53;;;18.20;100.00
19831;BME280;10076;52.008;4.708;2023-07-31T04:35:04;100826.91;;;18.08;100.00
19831;BME280;10076;52.008;4.708;2023-07-31T04:37:29;100819.91;;;18.15;100.00
19831;BME280;10076;52.008;4.708;2023-07-31T04:39:54;100821.94;;;18.13;100.00
19831;BME280;10076;52.008;4.708;2023-07-31T04:42:20;100813.91;;;18.13;100.00
19831;BME280;10076;52.008;4.708;2023-07-31T04:44:45;100815.78;;;17.95;100.00
19831;BME280;10076;52.008;4.708;2023-07-31T04:47:10;100813.75;;;17.97;100.00
19831;BME280;10076;52.008;4.708;2023-07-31T04:49:36;100817.22;;;18.07;100.00
19831;BME280;10076;52.008;4.708;2023-07-31T04:52:01;100811.25;;;18.13;100.00
19831;BME280;10076;52.008;4.708;2023-07-31T04:54:27;100817.22;;;18.07;100.00
19831;BME280;10076;52.008;4.708;2023-07-31T04:56:52;100816.25;;;18.16;100.00
19831;BME280;10076;52.008;4.708;2023-07-31T04:59:18;100810.81;;;18.00;100.00
19831;BME280;10076;52.008;4.708;2023-07-31T05:01:43;100809.13;;;17.99;100.00
19831;BME280;10076;52.008;4.708;2023-07-31T05:04:12;100808.06;;;17.92;100.00
19831;BME280;10076;52.008;4.708;2023-07-31T05:06:37;100796.72;;;17.90;100.00
19831;BME280;10076;52.008;4.708;2023-07-31T05:09:02;100799.75;;;17.95;100.00
19831;BME280;10076;52.008;4.708;2023-07-31T05:11:28;100800.72;;;17.94;100.00
19831;BME280;10076;52.008;4.708;2023-07-31T05:13:53;100803.88;;;17.90;100.00
19831;BME280;10076;52.008;4.708;2023-07-31T05:16:18;100796.44;;;18.01;100.00
19831;BME280;10076;52.008;4.708;2023-07-31T05:18:44;100791.03;;;17.93;100.00
19831;BME280;10076;52.008;4.708;2023-07-31T05:21:09;100796.53;;;17.92;100.00
19831;BME280;10076;52.008;4.708;2023-07-31T05:23:34;100795.31;;;18.03;100.00
19831;BME280;10076;52.008;4.708;2023-07-31T05:26:06;100787.19;;;18.13;100.00
19831;BME280;10076;52.008;4.708;2023-07-31T05:28:34;100795.31;;;18.03;100.00
19831;BME280;10076;52.008;4.708;2023-07-31T05:31:03;100776.84;;;18.18;100.00
19831;BME280;10076;52.008;4.708;2023-07-31T05:33:29;100774.13;;;18.10;100.00
19831;BME280;10076;52.008;4.708;2023-07-31T05:35:54;100762.69;;;18.00;100.00
19831;BME280;10076;52.008;4.708;2023-07-31T05:38:20;100766.16;;;17.93;100.00
19831;BME280;10076;52.008;4.708;2023-07-31T05:40:46;100763.22;;;18.03;100.00
19831;BME280;10076;52.008;4.708;2023-07-31T05:43:11;100755.06;;;18.05;100.00
19831;BME280;10076;52.008;4.708;2023-07-31T05:45:37;100759.13;;;17.92;100.00
19831;BME280;10076;52.008;4.708;2023-07-31T05:48:03;100759.69;;;18.03;100.00
19831;BME280;10076;52.008;4.708;2023-07-31T05:50:29;100755.75;;;18.07;100.00
19831;BME280;10076;52.008;4.708;2023-07-31T05:52:55;100754.19;;;18.22;100.00
19831;BME280;10076;52.008;4.708;2023-07-31T05:55:20;100748.66;;;18.23;100.00
19831;BME280;10076;52.008;4.708;2023-07-31T05:57:46;100742.84;;;18.28;100.00
19831;BME280;10076;52.008;4.708;2023-07-31T06:00:12;100742.84;;;18.28;100.00
19831;BME280;10076;52.008;4.708;2023-07-31T06:02:38;100738.66;;;18.25;100.00
19831;BME280;10076;52.008;4.708;2023-07-31T06:05:04;100738.47;;;18.19;100.00
19831;BME280;10076;52.008;4.708;2023-07-31T06:07:33;100746.88;;;18.06;100.00
19831;BME280;10076;52.008;4.708;2023-07-31T06:09:59;100747.63;;;18.16;100.00
19831;BME280;10076;52.008;4.708;2023-07-31T06:12:30;100748.16;;;18.20;100.00
19831;BME280;10076;52.008;4.708;2023-07-31T06:14:56;100736.69;;;18.10;100.00
19831;BME280;10076;52.008;4.708;2023-07-31T06:17:21;100737.16;;;18.23;100.00
19831;BME280;10076;52.008;4.708;2023-07-31T06:19:47;100740.00;;;18.21;100.00
19831;BME280;10076;52.008;4.708;2023-07-31T06:22:12;100741.00;;;18.28;100.00
19831;BME280;10076;52.008;4.708;2023-07-31T06:24:37;100743.22;;;18.33;100.00
19831;BME280;10076;52.008;4.708;2023-07-31T06:27:03;100734.72;;;18.37;100.00
19831;BME280;10076;52.008;4.708;2023-07-31T06:29:29;100728.16;;;18.32;100.00
19831;BME280;10076;52.008;4.708;2023-07-31T06:31:55;100733.28;;;18.51;100.00
19831;BME280;10076;52.008;4.708;2023-07-31T06:34:20;100727.63;;;18.54;100.00
19831;BME280;10076;52.008;4.708;2023-07-31T06:36:46;100723.63;;;18.58;100.00
19831;BME280;10076;52.008;4.708;2023-07-31T06:39:11;100724.94;;;18.54;100.00
19831;BME280;10076;52.008;4.708;2023-07-31T06:41:37;100727.97;;;18.59;100.00
19831;BME280;10076;52.008;4.708;2023-07-31T06:44:02;100721.09;;;18.56;100.00
19831;BME280;10076;52.008;4.708;2023-07-31T06:46:28;100719.59;;;18.54;100.00
19831;BME280;10076;52.008;4.708;2023-07-31T06:48:53;100715.72;;;18.48;100.00
19831;BME280;10076;52.008;4.708;2023-07-31T06:51:18;100701.81;;;18.45;100.00
19831;BME280;10076;52.008;4.708;2023-07-31T06:53:44;100715.91;;;18.55;100.00
19831;BME280;10076;52.008;4.708;2023-07-31T06:56:10;100708.91;;;18.62;100.00
19831;BME280;10076;52.008;4.708;2023-07-31T06:58:35;100709.53;;;18.48;100.00
19831;BME280;10076;52.008;4.708;2023-07-31T07:01:01;100708.50;;;18.49;100.00
19831;BME280;10076;52.008;4.708;2023-07-31T07:03:27;100707.53;;;18.50;100.00
19831;BME280;10076;52.008;4.708;2023-07-31T07:05:52;100710.53;;;18.55;100.00
19831;BME280;10076;52.008;4.708;2023-07-31T07:08:17;100712.56;;;18.53;100.00
19831;BME280;10076;52.008;4.708;2023-07-31T07:10:43;100716.44;;;18.66;100.00
19831;BME280;10076;52.008;4.708;2023-07-31T07:13:08;100712.97;;;18.73;100.00
19831;BME280;10076;52.008;4.708;2023-07-31T07:15:34;100714.59;;;18.67;100.00
19831;BME280;10076;52.008;4.708;2023-07-31T07:18:00;100717.63;;;18.64;100.00
19831;BME280;10076;52.008;4.708;2023-07-31T07:20:25;100714.66;;;18.74;100.00
19831;BME280;10076;52.008;4.708;2023-07-31T07:22:50;100711.63;;;18.77;100.00
19831;BME280;10076;52.008;4.708;2023-07-31T07:25:16;100706.97;;;18.79;100.00
19831;BME280;10076;52.008;4.708;2023-07-31T07:27:41;100706.97;;;18.79;100.00
19831;BME280;10076;52.008;4.708;2023-07-31T07:30:06;100713.16;;;18.80;100.00
19831;BME280;10076;52.008;4.708;2023-07-31T07:32:32;100699.59;;;18.73;100.00
19831;BME280;10076;52.008;4.708;2023-07-31T07:34:57;100709.63;;;18.79;100.00
19831;BME280;10076;52.008;4.708;2023-07-31T07:37:23;100704.97;;;18.89;100.00
19831;BME280;10076;52.008;4.708;2023-07-31T07:39:48;100707.00;;;18.87;100.00
19831;BME280;10076;52.008;4.708;2023-07-31T07:42:13;100708.03;;;18.94;100.00
19831;BME280;10076;52.008;4.708;2023-07-31T07:44:39;100713.84;;;18.90;100.00
19831;BME280;10076;52.008;4.708;2023-07-31T07:47:04;100714.19;;;18.95;100.00
19831;BME280;10076;52.008;4.708;2023-07-31T07:49:34;100722.41;;;18.93;100.00
19831;BME280;10076;52.008;4.708;2023-07-31T07:52:00;100715.38;;;19.00;100.00
19831;BME280;10076;52.008;4.708;2023-07-31T07:54:26;100709.84;;;18.94;100.00
19831;BME280;10076;52.008;4.708;2023-07-31T07:56:51;100703.50;;;18.95;100.00
19831;BME280;10076;52.008;4.708;2023-07-31T07:59:16;100699.13;;;18.94;100.00
19831;BME280;10076;52.008;4.708;2023-07-31T08:01:42;100696.50;;;19.10;100.00
19831;BME280;10076;52.008;4.708;2023-07-31T08:04:07;100701.03;;;19.09;100.00
19831;BME280;10076;52.008;4.708;2023-07-31T08:06:32;100699.56;;;19.15;100.00
19831;BME280;10076;52.008;4.708;2023-07-31T08:08:59;100692.69;;;19.20;100.00
19831;BME280;10076;52.008;4.708;2023-07-31T08:11:24;100696.03;;;19.14;100.00
19831;BME280;10076;52.008;4.708;2023-07-31T08:13:50;100694.84;;;19.09;100.00
19831;BME280;10076;52.008;4.708;2023-07-31T08:16:15;100687.31;;;19.20;100.00
19831;BME280;10076;52.008;4.708;2023-07-31T08:18:41;100686.31;;;19.21;100.00
19831;BME280;10076;52.008;4.708;2023-07-31T08:21:08;100683.28;;;19.08;100.00
19831;BME280;10076;52.008;4.708;2023-07-31T08:23:33;100678.59;;;19.18;100.00
19831;BME280;10076;52.008;4.708;2023-07-31T08:25:59;100683.50;;;19.15;100.00
19831;BME280;10076;52.008;4.708;2023-07-31T08:28:25;100689.66;;;19.15;100.00
19831;BME280;10076;52.008;4.708;2023-07-31T08:30:50;100693.34;;;19.14;100.00
19831;BME280;10076;52.008;4.708;2023-07-31T08:33:15;100686.59;;;19.02;100.00
19831;BME280;10076;52.008;4.708;2023-07-31T08:35:41;100683.59;;;19.05;100.00
19831;BME280;10076;52.008;4.708;2023-07-31T08:38:06;100701.06;;;19.17;100.00
19831;BME280;10076;52.008;4.708;2023-07-31T08:40:32;100687.16;;;19.14;100.00
19831;BME280;10076;52.008;4.708;2023-07-31T08:42:57;100692.00;;;19.18;100.00
19831;BME280;10076;52.008;4.708;2023-07-31T08:45:28;100680.47;;;19.26;100.00
19831;BME280;10076;52.008;4.708;2023-07-31T08:47:54;100685.00;;;19.33;100.00
19831;BME280;10076;52.008;4.708;2023-07-31T08:50:21;100685.00;;;19.33;100.00
19831;BME280;10076;52.008;4.708;2023-07-31T08:52:47;100687.00;;;19.39;100.00
19831;BME280;10076;52.008;4.708;2023-07-31T08:55:13;100688.69;;;19.40;100.00
19831;BME280;10076;52.008;4.708;2023-07-31T08:57:39;100691.19;;;19.42;100.00
19831;BME280;10076;52.008;4.708;2023-07-31T09:00:06;100681.16;;;19.43;100.00
19831;BME280;10076;52.008;4.708;2023-07-31T09:05:23;100687.31;;;19.68;100.00
19831;BME280;10076;52.008;4.708;2023-07-31T09:07:51;100693.34;;;19.62;100.00
19831;BME280;10076;52.008;4.708;2023-07-31T09:10:16;100689.31;;;19.66;100.00
19831;BME280;10076;52.008;4.708;2023-07-31T09:12:42;100689.16;;;19.75;100.00
19831;BME280;10076;52.008;4.708;2023-07-31T09:15:08;100685.31;;;19.54;100.00
19831;BME280;10076;52.008;4.708;2023-07-31T09:17:35;100678.44;;;19.51;100.00
19831;BME280;10076;52.008;4.708;2023-07-31T09:20:14;100680.63;;;19.56;100.00
19831;BME280;10076;52.008;4.708;2023-07-31T09:22:40;100678.47;;;19.59;100.00
19831;BME280;10076;52.008;4.708;2023-07-31T09:25:20;100677.78;;;19.65;100.00
19831;BME280;10076;52.008;4.708;2023-07-31T09:30:17;100680.44;;;19.73;100.00
19831;BME280;10076;52.008;4.708;2023-07-31T09:32:43;100671.25;;;19.60;100.00
19831;BME280;10076;52.008;4.708;2023-07-31T09:35:28;100669.91;;;19.56;100.00
19831;BME280;10076;52.008;4.708;2023-07-31T09:37:57;100675.25;;;19.80;100.00
19831;BME280;10076;52.008;4.708;2023-07-31T09:40:29;100672.88;;;19.85;100.00
19831;BME280;10076;52.008;4.708;2023-07-31T09:43:03;100677.09;;;19.95;100.00
19831;BME280;10076;52.008;4.708;2023-07-31T09:45:29;100680.06;;;19.92;100.00
19831;BME280;10076;52.008;4.708;2023-07-31T09:47:55;100665.84;;;19.84;100.00
19831;BME280;10076;52.008;4.708;2023-07-31T09:50:23;100670.53;;;19.90;100.00
19831;BME280;10076;52.008;4.708;2023-07-31T09:52:49;100669.53;;;19.83;100.00
19831;BME280;10076;52.008;4.708;2023-07-31T09:55:15;100660.16;;;19.87;100.00
19831;BME280;10076;52.008;4.708;2023-07-31T09:57:45;100665.00;;;19.99;100.00
19831;BME280;10076;52.008;4.708;2023-07-31T10:00:12;100665.81;;;20.08;100.00
19831;BME280;10076;52.008;4.708;2023-07-31T10:02:38;100666.50;;;20.02;100.00
19831;BME280;10076;52.008;4.708;2023-07-31T10:05:05;100663.34;;;19.98;100.00
19831;BME280;10076;52.008;4.708;2023-07-31T10:07:34;100653.59;;;20.05;100.00
19831;BME280;10076;52.008;4.708;2023-07-31T10:10:01;100669.34;;;19.92;100.00
19831;BME280;10076;52.008;4.708;2023-07-31T10:12:29;100664.66;;;20.02;100.00
19831;BME280;10076;52.008;4.708;2023-07-31T10:14:56;100665.16;;;20.06;100.00
19831;BME280;10076;52.008;4.708;2023-07-31T10:17:22;100665.31;;;20.12;100.00
19831;BME280;10076;52.008;4.708;2023-07-31T10:19:49;100673.66;;;20.17;100.00
19831;BME280;10076;52.008;4.708;2023-07-31T10:22:15;100668.13;;;20.11;100.00
19831;BME280;10076;52.008;4.708;2023-07-31T10:24:42;100676.16;;;20.18;100.00
19831;BME280;10076;52.008;4.708;2023-07-31T10:27:08;100671.13;;;20.23;100.00
19831;BME280;10076;52.008;4.708;2023-07-31T10:29:35;100668.09;;;20.26;100.00
19831;BME280;10076;52.008;4.708;2023-07-31T10:32:01;100672.41;;;20.35;100.00
19831;BME280;10076;52.008;4.708;2023-07-31T10:34:28;100676.75;;;20.44;100.00
19831;BME280;10076;52.008;4.708;2023-07-31T10:37:28;100665.56;;;20.33;100.00
19831;BME280;10076;52.008;4.708;2023-07-31T10:40:24;100671.03;;;20.47;100.00
19831;BME280;10076;52.008;4.708;2023-07-31T10:42:52;100670.53;;;20.44;100.00
19831;BME280;10076;52.008;4.708;2023-07-31T10:45:37;100665.16;;;20.44;100.00
19831;BME280;10076;52.008;4.708;2023-07-31T10:48:05;100648.94;;;20.37;100.00
19831;BME280;10076;52.008;4.708;2023-07-31T10:50:32;100651.63;;;20.37;100.00
19831;BME280;10076;52.008;4.708;2023-07-31T10:52:58;100662.38;;;20.29;100.00
19831;BME280;10076;52.008;4.708;2023-07-31T10:55:29;100658.66;;;20.38;100.00
19831;BME280;10076;52.008;4.708;2023-07-31T10:57:56;100652.41;;;20.15;100.00
19831;BME280;10076;52.008;4.708;2023-07-31T11:03:05;100653.59;;;20.05;100.00
19831;BME280;10076;52.008;4.708;2023-07-31T11:08:13;100657.56;;;20.17;100.00
19831;BME280;10076;52.008;4.708;2023-07-31T11:10:39;100648.88;;;20.15;100.00
19831;BME280;10076;52.008;4.708;2023-07-31T11:13:05;100650.75;;;20.07;100.00
19831;BME280;10076;52.008;4.708;2023-07-31T11:15:30;100643.84;;;20.12;100.00
19831;BME280;10076;52.008;4.708;2023-07-31T11:17:56;100644.19;;;20.09;100.00
19831;BME280;10076;52.008;4.708;2023-07-31T11:20:24;100640.94;;;20.29;100.00
19831;BME280;10076;52.008;4.708;2023-07-31T11:22:49;100637.22;;;20.30;100.00
19831;BME280;10076;52.008;4.708;2023-07-31T11:25:15;100640.22;;;20.35;100.00
19831;BME280;10076;52.008;4.708;2023-07-31T11:27:41;100645.78;;;20.34;100.00
19831;BME280;10076;52.008;4.708;2023-07-31T11:30:09;100639.88;;;20.38;100.00
19831;BME280;10076;52.008;4.708;2023-07-31T11:32:36;100641.19;;;20.42;100.00
19831;BME280;10076;52.008;4.708;2023-07-31T11:35:02;100639.22;;;20.36;100.00
19831;BME280;10076;52.008;4.708;2023-07-31T11:37:42;100634.38;;;20.32;100.00
19831;BME280;10076;52.008;4.708;2023-07-31T11:40:08;100634.22;;;20.33;100.00
19831;BME280;10076;52.008;4.708;2023-07-31T11:42:37;100620.94;;;20.40;100.00
19831;BME280;10076;52.008;4.708;2023-07-31T11:45:03;100637.22;;;20.30;100.00
19831;BME280;10076;52.008;4.708;2023-07-31T11:47:30;100634.16;;;20.41;100.00
19831;BME280;10076;52.008;4.708;2023-07-31T11:49:57;100647.63;;;20.33;100.00
19831;BME280;10076;52.008;4.708;2023-07-31T11:52:23;100651.31;;;20.32;100.00
19831;BME280;10076;52.008;4.708;2023-07-31T11:54:49;100647.38;;;20.13;100.00
19831;BME280;10076;52.008;4.708;2023-07-31T11:57:15;100659.41;;;20.16;100.00
19831;BME280;10076;52.008;4.708;2023-07-31T11:59:42;100669.81;;;20.19;100.00
19831;BME280;10076;52.008;4.708;2023-07-31T12:02:08;100656.09;;;20.14;100.00
19831;BME280;10076;52.008;4.708;2023-07-31T12:04:34;100649.63;;;20.31;100.00
19831;BME280;10076;52.008;4.708;2023-07-31T12:07:00;100648.94;;;20.37;100.00
19831;BME280;10076;52.008;4.708;2023-07-31T12:09:26;100630.25;;;20.52;100.00
19831;BME280;10076;52.008;4.708;2023-07-31T12:11:51;100629.16;;;20.69;100.00
19831;BME280;10076;52.008;4.708;2023-07-31T12:14:27;100626.28;;;20.78;100.00
19831;BME280;10076;52.008;4.708;2023-07-31T12:16:58;100621.44;;;20.96;100.00
19831;BME280;10076;52.008;4.708;2023-07-31T12:19:27;100622.25;;;21.19;100.00
19831;BME280;10076;52.008;4.708;2023-07-31T12:21:55;100613.41;;;21.33;100.00
19831;BME280;10076;52.008;4.708;2023-07-31T12:24:20;100612.38;;;21.56;100.00
19831;BME280;10076;52.008;4.708;2023-07-31T12:26:46;100598.69;;;21.65;100.00
19831;BME280;10076;52.008;4.708;2023-07-31T12:29:14;100600.84;;;21.48;100.00
19831;BME280;10076;52.008;4.708;2023-07-31T12:31:41;100593.28;;;21.29;100.00
19831;BME280;10076;52.008;4.708;2023-07-31T12:34:17;100601.72;;;21.26;100.00
19831;BME280;10076;52.008;4.708;2023-07-31T12:36:46;100599.88;;;21.26;100.00
19831;BME280;10076;52.008;4.708;2023-07-31T12:39:14;100592.53;;;21.20;100.00
19831;BME280;10076;52.008;4.708;2023-07-31T12:41:40;100605.88;;;21.14;100.00
19831;BME280;10076;52.008;4.708;2023-07-31T12:44:05;100600.84;;;21.11;100.00
19831;BME280;10076;52.008;4.708;2023-07-31T12:46:30;100587.66;;;21.01;100.00
19831;BME280;10076;52.008;4.708;2023-07-31T12:48:56;100568.13;;;21.07;100.00
19831;BME280;10076;52.008;4.708;2023-07-31T12:51:21;100579.41;;;21.03;100.00
19831;BME280;10076;52.008;4.708;2023-07-31T12:53:47;100590.75;;;21.13;100.00